AirNav   TITAN Aviation Fuels
 
 1602 users online  

WA04 Kyles Airport
Snohomish, Washington, USA

GOING TO SNOHOMISH?


FAA INFORMATION EFFECTIVE 04 NOVEMBER 2021

Location

FAA Identifier: WA04
Lat/Long: 47-48-48.0000N 122-02-36.0000W
47-48.800000N 122-02.600000W
47.8133333,-122.0433333
(estimated)
Elevation: 470 ft. / 143 m (estimated)
From city: 7 miles SE of SNOHOMISH, WA
Time zone: UTC -7 (UTC -8 during Standard Time)
Zip code: 98296

Airport Operations

Airport use: Private use. Permission required prior to landing
Activation date: 09/2005
Control tower: no
ARTCC: SEATTLE CENTER
FSS: SEATTLE FLIGHT SERVICE STATION
Attendance: UNATNDD
Wind indicator: yes
Segmented circle: no

Airport Communications

WX ASOS at PAE (11 nm NW): PHONE 425-355-6192
WX ASOS at BFI (20 nm SW): PHONE 206-658-6435

Nearby radio navigation aids

VOR radial/distance  VOR name  Freq  Var
PAEr104/11.4PAINE VOR/DME110.6020E
SEAr006/25.1SEATTLE VORTAC116.8019E
CVVr114/37.6PENN COVE VOR/DME117.2019E

Airport Services

Runway Information

Runway 15/33

Dimensions: 1800 x 30 ft. / 549 x 9 m
Surface: turf
Operational restrictions: USE RY 15 FOR LDG; 40 FT UPSLOPE.
RUNWAY 15  RUNWAY 33
Traffic pattern: leftleft
Obstructions: 25 ft. trees, 100 ft. from runway80 ft. trees

Airport Ownership and Management from official FAA records

Ownership: Privately-owned
Owner: ALLYN & JAMES KYLE
20225 WELCH RD
SNOHOMISH, WA 98296
Phone 360-668-3736
Manager: ALLYN KYLE
20225 WELCH RD
SNOHOMISH, WA 98296
Phone 360-668-3736

Airport Operational Statistics

Aircraft based on the field: 5
Single engine airplanes: 4
Ultralights: 1
    

Additional Remarks

FOR CD CTC SEATTLE APCH AT 206-214-4794.
PPR.

Instrument Procedures

There are no published instrument procedures at WA04.

Some nearby airports with instrument procedures:

S43 - Harvey Field Airport (6 nm NW)
KPAE - Snohomish County Airport (Paine Field) (11 nm NW)
KBFI - Boeing Field/King County International Airport (20 nm SW)
KRNT - Renton Municipal Airport (20 nm S)
KAWO - Arlington Municipal Airport (21 nm N)
 
Loc | Ops | Rwys | IFR | FBO | Links
Com | Nav | Svcs | Stats | Notes
Area around WA04 (Kyles Airport)
 
Road maps at: MapQuest Bing Google
 
Aerial photo
WARNING: Photo may not be current or correct
Aerial photo of WA04 (Kyles Airport)
Photo taken 18-Jul-2017

Do you have a better or more recent aerial photo of Kyles Airport that you would like to share? If so, please send us your photo.

 
Sectional chart

 
Airport distance calculator
Flying to Kyles Airport? Find the distance to fly.

From to WA04

Sunrise and sunset
Times for 30-Nov-2021
 Local
(UTC-8)
 Zulu
(UTC)
Morning civil twilight07:0115:01
Sunrise07:3615:36
Sunset16:1800:18
Evening civil twilight16:5300:53

Current date and time
Zulu (UTC)  30-Nov-2021 18:20:14
Local (UTC-8)  30-Nov-2021 10:20:14
 
METAR
KPAE 
11nm NW 
301753Z 18018G27KT 7SM -RA FEW024 BKN060 OVC070 11/07 A3019 RMK AO2 PK WND 21032/1733 RAB06 SLP223 P0000 60001 T01060072 10117 20100 53024
KBFI 
19nm SW 
301753Z 20012G19KT 10SM SCT014 BKN023 OVC060 12/10 A3022 RMK AO2 SLP232 60000 T01220100 10122 20117 53018
KRNT 
20nm S 
301753Z 18005KT 10SM OVC014 12/10 A3022 RMK AO2 SLP237 6//// T01220100 10128 20111 53015
KAWO 
22nm N 
301756Z AUTO 15014G21KT 10SM -RA BKN021 OVC028 11/09 A3020 RMK AO2 RAE1658B24 SLP230 P0000 60000 T01110094 10128 20111 53027
TAF
KPAE 
11nm NW 
301120Z 3012/0112 16014G24KT P6SM VCSH SCT008 OVC025 TEMPO 3012/3015 6SM -RA BR BKN007 OVC022 FM301500 17013G22KT 6SM -RA BR OVC009 FM302200 17012G22KT 4SM -RA BR OVC010 FM010900 18014G22KT P6SM VCSH BKN014
KBFI 
19nm SW 
301720Z 3018/0118 21007KT P6SM -RA BKN027 OVC060 FM302100 17010G18KT P6SM -RA OVC025 FM010400 16009KT P6SM -RA OVC020 FM011000 16009KT P6SM VCSH BKN022
NOTAMs
Click for the latest NOTAMs
NOTAMs are issued by the DoD/FAA and will open in a separate window not controlled by AirNav.

 

 
 

Would you like to see your business listed on this page?

 If your business provides an interesting product or service to pilots, flight crews, aircraft, or users of the Kyles Airport, you should consider listing it here.  To start the listing process, click on the button below
 
Add a business
 

Other Pages about Kyles Airport

Update a link
 
Copyright © AirNav, LLC. All rights reserved. Privacy Policy  Contact